sensor_id;sensor_type;location;lat;lon;timestamp;temperature;humidity
1978;DHT22;989;53.016;8.346;2023-02-11T00:00:55;7.10;1.00
1978;DHT22;989;53.016;8.346;2023-02-11T00:03:21;7.10;1.00
1978;DHT22;989;53.016;8.346;2023-02-11T00:06:02;7.20;1.00
1978;DHT22;989;53.016;8.346;2023-02-11T00:08:30;7.10;1.00
1978;DHT22;989;53.016;8.346;2023-02-11T00:10:57;7.10;1.00
1978;DHT22;989;53.016;8.346;2023-02-11T00:13:23;7.10;1.00
1978;DHT22;989;53.016;8.346;2023-02-11T00:15:49;7.10;1.00
1978;DHT22;989;53.016;8.346;2023-02-11T00:18:15;7.10;1.00
1978;DHT22;989;53.016;8.346;2023-02-11T00:20:42;7.20;1.00
1978;DHT22;989;53.016;8.346;2023-02-11T00:23:08;7.20;1.00
1978;DHT22;989;53.016;8.346;2023-02-11T00:25:38;7.20;1.00
1978;DHT22;989;53.016;8.346;2023-02-11T00:28:05;7.10;1.00
1978;DHT22;989;53.016;8.346;2023-02-11T00:30:31;7.10;1.00
1978;DHT22;989;53.016;8.346;2023-02-11T00:32:56;7.10;1.00
1978;DHT22;989;53.016;8.346;2023-02-11T00:35:22;7.10;1.00
1978;DHT22;989;53.016;8.346;2023-02-11T00:37:48;7.20;1.00
1978;DHT22;989;53.016;8.346;2023-02-11T00:40:14;7.20;1.00
1978;DHT22;989;53.016;8.346;2023-02-11T00:42:41;7.20;1.00
1978;DHT22;989;53.016;8.346;2023-02-11T00:45:07;7.20;1.00
1978;DHT22;989;53.016;8.346;2023-02-11T00:47:34;7.20;1.00
1978;DHT22;989;53.016;8.346;2023-02-11T00:50:01;7.20;1.00
1978;DHT22;989;53.016;8.346;2023-02-11T00:52:30;7.30;1.00
1978;DHT22;989;53.016;8.346;2023-02-11T00:54:56;7.20;1.00
1978;DHT22;989;53.016;8.346;2023-02-11T00:57:21;7.10;1.00
1978;DHT22;989;53.016;8.346;2023-02-11T00:59:47;7.20;1.00
1978;DHT22;989;53.016;8.346;2023-02-11T01:02:13;7.20;1.00
1978;DHT22;989;53.016;8.346;2023-02-11T01:04:38;7.20;1.00
1978;DHT22;989;53.016;8.346;2023-02-11T01:07:04;7.10;1.00
1978;DHT22;989;53.016;8.346;2023-02-11T01:09:30;7.20;1.00
1978;DHT22;989;53.016;8.346;2023-02-11T01:11:55;7.20;1.00
1978;DHT22;989;53.016;8.346;2023-02-11T01:14:21;7.20;1.00
1978;DHT22;989;53.016;8.346;2023-02-11T01:16:47;7.30;1.00
1978;DHT22;989;53.016;8.346;2023-02-11T01:19:12;7.30;1.00
1978;DHT22;989;53.016;8.346;2023-02-11T01:21:38;7.30;1.00
1978;DHT22;989;53.016;8.346;2023-02-11T01:24:03;7.30;1.00
1978;DHT22;989;53.016;8.346;2023-02-11T01:26:29;7.30;1.00
1978;DHT22;989;53.016;8.346;2023-02-11T01:28:55;7.40;1.00
1978;DHT22;989;53.016;8.346;2023-02-11T01:31:20;7.30;1.00
1978;DHT22;989;53.016;8.346;2023-02-11T01:33:46;7.30;1.00
1978;DHT22;989;53.016;8.346;2023-02-11T01:36:13;7.30;1.00
1978;DHT22;989;53.016;8.346;2023-02-11T01:38:39;7.30;1.00
1978;DHT22;989;53.016;8.346;2023-02-11T01:41:08;7.40;1.00
1978;DHT22;989;53.016;8.346;2023-02-11T01:43:39;7.40;1.00
1978;DHT22;989;53.016;8.346;2023-02-11T01:49:18;7.40;1.00
1978;DHT22;989;53.016;8.346;2023-02-11T01:51:57;7.40;1.00
1978;DHT22;989;53.016;8.346;2023-02-11T01:54:28;7.50;1.00
1978;DHT22;989;53.016;8.346;2023-02-11T01:57:19;7.50;1.00
1978;DHT22;989;53.016;8.346;2023-02-11T02:10:30;7.50;1.00
1978;DHT22;989;53.016;8.346;2023-02-11T02:12:58;7.40;1.00
1978;DHT22;989;53.016;8.346;2023-02-11T02:15:29;7.50;1.00
1978;DHT22;989;53.016;8.346;2023-02-11T02:18:27;7.40;1.00
1978;DHT22;989;53.016;8.346;2023-02-11T02:21:28;7.40;1.00
1978;DHT22;989;53.016;8.346;2023-02-11T02:33:04;7.40;1.00
1978;DHT22;989;53.016;8.346;2023-02-11T02:35:47;7.40;1.00
1978;DHT22;989;53.016;8.346;2023-02-11T02:38:34;7.40;1.00
1978;DHT22;989;53.016;8.346;2023-02-11T02:41:08;7.40;1.00
1978;DHT22;989;53.016;8.346;2023-02-11T02:43:40;7.40;1.00
1978;DHT22;989;53.016;8.346;2023-02-11T02:46:14;7.40;1.00
1978;DHT22;989;53.016;8.346;2023-02-11T02:48:52;7.40;1.00
1978;DHT22;989;53.016;8.346;2023-02-11T02:57:28;7.40;1.00
1978;DHT22;989;53.016;8.346;2023-02-11T03:06:33;7.50;1.00
1978;DHT22;989;53.016;8.346;2023-02-11T03:09:40;7.50;1.00
1978;DHT22;989;53.016;8.346;2023-02-11T03:12:09;7.50;1.00
1978;DHT22;989;53.016;8.346;2023-02-11T03:14:36;7.50;1.00
1978;DHT22;989;53.016;8.346;2023-02-11T03:17:05;7.60;1.00
1978;DHT22;989;53.016;8.346;2023-02-11T03:19:41;7.60;1.00
1978;DHT22;989;53.016;8.346;2023-02-11T03:22:45;7.60;1.00
1978;DHT22;989;53.016;8.346;2023-02-11T03:25:13;7.60;1.00
1978;DHT22;989;53.016;8.346;2023-02-11T03:27:52;7.70;1.00
1978;DHT22;989;53.016;8.346;2023-02-11T03:33:59;7.60;1.00
1978;DHT22;989;53.016;8.346;2023-02-11T03:36:37;7.60;1.00
1978;DHT22;989;53.016;8.346;2023-02-11T03:39:23;7.60;1.00
1978;DHT22;989;53.016;8.346;2023-02-11T03:41:54;7.60;1.00
1978;DHT22;989;53.016;8.346;2023-02-11T03:44:21;7.60;1.00
1978;DHT22;989;53.016;8.346;2023-02-11T03:46:49;7.60;1.00
1978;DHT22;989;53.016;8.346;2023-02-11T03:49:18;7.60;1.00
1978;DHT22;989;53.016;8.346;2023-02-11T03:51:48;7.60;1.00
1978;DHT22;989;53.016;8.346;2023-02-11T03:54:19;7.70;1.00
1978;DHT22;989;53.016;8.346;2023-02-11T03:56:54;7.60;1.00
1978;DHT22;989;53.016;8.346;2023-02-11T03:59:20;7.60;1.00
1978;DHT22;989;53.016;8.346;2023-02-11T04:01:46;7.60;1.00
1978;DHT22;989;53.016;8.346;2023-02-11T04:04:12;7.60;1.00
1978;DHT22;989;53.016;8.346;2023-02-11T04:06:38;7.60;1.00
1978;DHT22;989;53.016;8.346;2023-02-11T04:09:03;7.60;1.00
1978;DHT22;989;53.016;8.346;2023-02-11T04:11:29;7.60;1.00
1978;DHT22;989;53.016;8.346;2023-02-11T04:13:55;7.60;1.00
1978;DHT22;989;53.016;8.346;2023-02-11T04:16:20;7.60;1.00
1978;DHT22;989;53.016;8.346;2023-02-11T04:18:46;7.60;1.00
1978;DHT22;989;53.016;8.346;2023-02-11T04:21:12;7.60;1.00
1978;DHT22;989;53.016;8.346;2023-02-11T04:23:37;7.60;1.00
1978;DHT22;989;53.016;8.346;2023-02-11T04:26:03;7.60;1.00
1978;DHT22;989;53.016;8.346;2023-02-11T04:28:29;7.60;1.00
1978;DHT22;989;53.016;8.346;2023-02-11T04:30:55;7.60;1.00
1978;DHT22;989;53.016;8.346;2023-02-11T04:33:21;7.60;1.00
1978;DHT22;989;53.016;8.346;2023-02-11T04:35:47;7.50;1.00
1978;DHT22;989;53.016;8.346;2023-02-11T04:38:13;7.60;1.00
1978;DHT22;989;53.016;8.346;2023-02-11T04:40:39;7.60;1.00
1978;DHT22;989;53.016;8.346;2023-02-11T04:43:05;7.60;1.00
1978;DHT22;989;53.016;8.346;2023-02-11T04:45:32;7.60;1.00
1978;DHT22;989;53.016;8.346;2023-02-11T04:47:58;7.60;1.00
1978;DHT22;989;53.016;8.346;2023-02-11T04:50:24;7.60;1.00
1978;DHT22;989;53.016;8.346;2023-02-11T04:52:50;7.60;1.00
1978;DHT22;989;53.016;8.346;2023-02-11T04:55:15;7.60;1.00
1978;DHT22;989;53.016;8.346;2023-02-11T04:57:41;7.60;1.00
1978;DHT22;989;53.016;8.346;2023-02-11T05:00:07;7.50;1.00
1978;DHT22;989;53.016;8.346;2023-02-11T05:02:34;7.50;1.00
1978;DHT22;989;53.016;8.346;2023-02-11T05:05:00;7.50;1.00
1978;DHT22;989;53.016;8.346;2023-02-11T05:07:26;7.60;1.40
1978;DHT22;989;53.016;8.346;2023-02-11T05:09:52;7.60;1.00
1978;DHT22;989;53.016;8.346;2023-02-11T05:12:17;7.60;1.00
1978;DHT22;989;53.016;8.346;2023-02-11T05:14:43;7.60;1.00
1978;DHT22;989;53.016;8.346;2023-02-11T05:17:09;7.60;1.10
1978;DHT22;989;53.016;8.346;2023-02-11T05:19:34;7.60;4.10
1978;DHT22;989;53.016;8.346;2023-02-11T05:22:00;7.60;5.50
1978;DHT22;989;53.016;8.346;2023-02-11T05:24:25;7.60;4.20
1978;DHT22;989;53.016;8.346;2023-02-11T05:26:51;7.60;6.40
1978;DHT22;989;53.016;8.346;2023-02-11T05:29:17;7.60;8.40
1978;DHT22;989;53.016;8.346;2023-02-11T05:31:43;7.60;9.40
1978;DHT22;989;53.016;8.346;2023-02-11T05:34:08;7.60;12.80
1978;DHT22;989;53.016;8.346;2023-02-11T05:36:34;7.60;17.10
1978;DHT22;989;53.016;8.346;2023-02-11T05:39:00;7.60;20.90
1978;DHT22;989;53.016;8.346;2023-02-11T05:41:26;7.60;22.10
1978;DHT22;989;53.016;8.346;2023-02-11T05:43:51;7.60;30.40
1978;DHT22;989;53.016;8.346;2023-02-11T05:46:17;7.50;44.30
1978;DHT22;989;53.016;8.346;2023-02-11T05:48:43;7.50;50.50
1978;DHT22;989;53.016;8.346;2023-02-11T05:51:09;7.50;59.80
1978;DHT22;989;53.016;8.346;2023-02-11T05:53:35;7.50;65.40
1978;DHT22;989;53.016;8.346;2023-02-11T05:56:01;7.50;70.50
1978;DHT22;989;53.016;8.346;2023-02-11T05:58:26;7.50;71.40
1978;DHT22;989;53.016;8.346;2023-02-11T06:00:52;7.50;78.80
1978;DHT22;989;53.016;8.346;2023-02-11T06:03:18;7.50;82.60
1978;DHT22;989;53.016;8.346;2023-02-11T06:05:44;7.50;90.60
1978;DHT22;989;53.016;8.346;2023-02-11T06:08:10;7.50;93.50
1978;DHT22;989;53.016;8.346;2023-02-11T06:10:36;7.40;95.00
1978;DHT22;989;53.016;8.346;2023-02-11T06:13:02;7.40;98.80
1978;DHT22;989;53.016;8.346;2023-02-11T06:15:29;7.50;99.90
1978;DHT22;989;53.016;8.346;2023-02-11T06:17:55;7.50;99.90
1978;DHT22;989;53.016;8.346;2023-02-11T06:20:21;7.50;99.90
1978;DHT22;989;53.016;8.346;2023-02-11T06:22:46;7.50;99.90
1978;DHT22;989;53.016;8.346;2023-02-11T06:25:12;7.50;99.90
1978;DHT22;989;53.016;8.346;2023-02-11T06:27:38;7.50;99.90
1978;DHT22;989;53.016;8.346;2023-02-11T06:30:05;7.50;99.90
1978;DHT22;989;53.016;8.346;2023-02-11T06:32:32;7.50;99.90
1978;DHT22;989;53.016;8.346;2023-02-11T06:34:57;7.50;99.90
1978;DHT22;989;53.016;8.346;2023-02-11T06:37:23;7.60;99.90
1978;DHT22;989;53.016;8.346;2023-02-11T06:39:49;7.60;99.90
1978;DHT22;989;53.016;8.346;2023-02-11T06:42:14;7.60;99.90
1978;DHT22;989;53.016;8.346;2023-02-11T06:44:40;7.60;99.90
1978;DHT22;989;53.016;8.346;2023-02-11T06:47:06;7.60;99.90
1978;DHT22;989;53.016;8.346;2023-02-11T06:49:32;7.70;99.90
1978;DHT22;989;53.016;8.346;2023-02-11T06:51:57;7.80;99.90
1978;DHT22;989;53.016;8.346;2023-02-11T06:54:23;7.80;99.90
1978;DHT22;989;53.016;8.346;2023-02-11T06:56:49;7.70;99.90
1978;DHT22;989;53.016;8.346;2023-02-11T06:59:16;7.70;99.90
1978;DHT22;989;53.016;8.346;2023-02-11T07:01:45;7.80;99.90
1978;DHT22;989;53.016;8.346;2023-02-11T07:04:11;7.80;99.90
1978;DHT22;989;53.016;8.346;2023-02-11T07:06:41;7.80;99.90
1978;DHT22;989;53.016;8.346;2023-02-11T07:09:07;7.80;99.90
1978;DHT22;989;53.016;8.346;2023-02-11T07:11:33;7.80;99.90
1978;DHT22;989;53.016;8.346;2023-02-11T07:14:02;7.90;99.90
1978;DHT22;989;53.016;8.346;2023-02-11T07:16:30;7.80;99.90
1978;DHT22;989;53.016;8.346;2023-02-11T07:18:56;7.80;99.90
1978;DHT22;989;53.016;8.346;2023-02-11T07:21:21;7.90;99.90
1978;DHT22;989;53.016;8.346;2023-02-11T07:23:49;7.90;99.90
1978;DHT22;989;53.016;8.346;2023-02-11T07:26:20;8.00;99.90
1978;DHT22;989;53.016;8.346;2023-02-11T07:28:48;8.00;98.90
1978;DHT22;989;53.016;8.346;2023-02-11T07:31:17;8.10;95.70
1978;DHT22;989;53.016;8.346;2023-02-11T07:33:45;8.10;92.30
1978;DHT22;989;53.016;8.346;2023-02-11T07:36:13;8.20;91.20
1978;DHT22;989;53.016;8.346;2023-02-11T07:38:42;8.20;85.20
1978;DHT22;989;53.016;8.346;2023-02-11T07:41:10;8.30;82.50
1978;DHT22;989;53.016;8.346;2023-02-11T07:43:38;8.40;80.70
1978;DHT22;989;53.016;8.346;2023-02-11T07:46:06;8.40;73.80
1978;DHT22;989;53.016;8.346;2023-02-11T07:48:33;8.40;71.60
1978;DHT22;989;53.016;8.346;2023-02-11T07:51:11;8.40;69.60
1978;DHT22;989;53.016;8.346;2023-02-11T07:53:38;8.40;65.90
1978;DHT22;989;53.016;8.346;2023-02-11T07:56:05;8.40;68.90
1978;DHT22;989;53.016;8.346;2023-02-11T07:58:32;8.50;64.70
1978;DHT22;989;53.016;8.346;2023-02-11T08:01:06;8.60;59.80
1978;DHT22;989;53.016;8.346;2023-02-11T08:03:34;8.50;60.00
1978;DHT22;989;53.016;8.346;2023-02-11T08:06:08;8.60;59.60
1978;DHT22;989;53.016;8.346;2023-02-11T08:08:35;8.70;52.80
1978;DHT22;989;53.016;8.346;2023-02-11T08:11:06;8.70;49.00
1978;DHT22;989;53.016;8.346;2023-02-11T08:13:39;8.70;48.30
1978;DHT22;989;53.016;8.346;2023-02-11T08:16:05;8.70;47.40
1978;DHT22;989;53.016;8.346;2023-02-11T08:18:32;8.70;47.20
1978;DHT22;989;53.016;8.346;2023-02-11T08:21:06;8.70;46.70
1978;DHT22;989;53.016;8.346;2023-02-11T08:23:35;8.70;46.30
1978;DHT22;989;53.016;8.346;2023-02-11T08:26:07;8.80;47.70
1978;DHT22;989;53.016;8.346;2023-02-11T08:28:38;8.80;48.40
1978;DHT22;989;53.016;8.346;2023-02-11T08:31:14;8.80;49.90
1978;DHT22;989;53.016;8.346;2023-02-11T08:33:44;8.80;47.10
1978;DHT22;989;53.016;8.346;2023-02-11T08:38:43;8.80;49.00
1978;DHT22;989;53.016;8.346;2023-02-11T08:41:09;8.90;48.40
1978;DHT22;989;53.016;8.346;2023-02-11T08:43:36;9.00;51.10
1978;DHT22;989;53.016;8.346;2023-02-11T08:46:06;8.90;44.00
1978;DHT22;989;53.016;8.346;2023-02-11T08:48:32;9.00;42.10
1978;DHT22;989;53.016;8.346;2023-02-11T08:50:58;9.00;42.80
1978;DHT22;989;53.016;8.346;2023-02-11T08:53:24;9.00;42.70
1978;DHT22;989;53.016;8.346;2023-02-11T08:55:51;9.10;35.40
1978;DHT22;989;53.016;8.346;2023-02-11T08:58:18;9.10;35.50
1978;DHT22;989;53.016;8.346;2023-02-11T09:00:45;9.10;37.50
1978;DHT22;989;53.016;8.346;2023-02-11T09:03:12;9.10;35.40
1978;DHT22;989;53.016;8.346;2023-02-11T09:05:45;9.10;35.70
1978;DHT22;989;53.016;8.346;2023-02-11T09:08:13;9.10;35.20
1978;DHT22;989;53.016;8.346;2023-02-11T09:10:39;9.10;39.40
1978;DHT22;989;53.016;8.346;2023-02-11T09:13:05;9.20;41.40
1978;DHT22;989;53.016;8.346;2023-02-11T09:15:31;9.10;43.70
1978;DHT22;989;53.016;8.346;2023-02-11T09:17:58;9.10;51.80
1978;DHT22;989;53.016;8.346;2023-02-11T09:20:24;9.00;59.40
1978;DHT22;989;53.016;8.346;2023-02-11T09:22:52;9.00;64.30
1978;DHT22;989;53.016;8.346;2023-02-11T09:25:18;9.00;70.50
1978;DHT22;989;53.016;8.346;2023-02-11T09:27:44;8.90;77.30
1978;DHT22;989;53.016;8.346;2023-02-11T09:30:10;8.90;83.40
1978;DHT22;989;53.016;8.346;2023-02-11T09:32:36;8.80;89.70
1978;DHT22;989;53.016;8.346;2023-02-11T09:35:02;8.80;91.60
1978;DHT22;989;53.016;8.346;2023-02-11T09:37:28;8.80;93.60
1978;DHT22;989;53.016;8.346;2023-02-11T09:39:54;8.80;97.20
1978;DHT22;989;53.016;8.346;2023-02-11T09:42:44;8.80;98.90
1978;DHT22;989;53.016;8.346;2023-02-11T09:45:26;8.80;99.40
1978;DHT22;989;53.016;8.346;2023-02-11T09:48:14;8.80;99.90
1978;DHT22;989;53.016;8.346;2023-02-11T09:50:45;8.80;99.90
1978;DHT22;989;53.016;8.346;2023-02-11T09:56:00;8.80;99.90
1978;DHT22;989;53.016;8.346;2023-02-11T09:58:33;8.80;99.90
1978;DHT22;989;53.016;8.346;2023-02-11T10:04:13;8.90;99.90
1978;DHT22;989;53.016;8.346;2023-02-11T10:06:48;8.90;99.90
1978;DHT22;989;53.016;8.346;2023-02-11T10:09:17;8.90;99.90
1978;DHT22;989;53.016;8.346;2023-02-11T10:15:09;8.90;99.90
1978;DHT22;989;53.016;8.346;2023-02-11T10:20:50;8.90;99.90
1978;DHT22;989;53.016;8.346;2023-02-11T10:23:29;9.00;99.90
1978;DHT22;989;53.016;8.346;2023-02-11T10:25:59;9.00;99.90
1978;DHT22;989;53.016;8.346;2023-02-11T10:28:33;9.00;99.90
1978;DHT22;989;53.016;8.346;2023-02-11T10:31:07;8.90;99.90
1978;DHT22;989;53.016;8.346;2023-02-11T10:36:32;9.00;99.90
1978;DHT22;989;53.016;8.346;2023-02-11T10:39:00;9.00;99.90
1978;DHT22;989;53.016;8.346;2023-02-11T10:41:42;9.00;99.90
1978;DHT22;989;53.016;8.346;2023-02-11T10:44:34;9.00;99.90
1978;DHT22;989;53.016;8.346;2023-02-11T10:47:23;9.00;99.90
1978;DHT22;989;53.016;8.346;2023-02-11T10:49:53;9.10;99.90
1978;DHT22;989;53.016;8.346;2023-02-11T10:52:25;9.10;99.90
1978;DHT22;989;53.016;8.346;2023-02-11T11:00:22;9.10;99.90
1978;DHT22;989;53.016;8.346;2023-02-11T11:02:55;9.10;99.90
1978;DHT22;989;53.016;8.346;2023-02-11T11:05:50;9.10;99.90
1978;DHT22;989;53.016;8.346;2023-02-11T11:08:18;9.20;99.90
1978;DHT22;989;53.016;8.346;2023-02-11T11:13:31;9.10;99.90
1978;DHT22;989;53.016;8.346;2023-02-11T11:18:43;9.10;99.90
1978;DHT22;989;53.016;8.346;2023-02-11T11:21:42;9.10;99.90
1978;DHT22;989;53.016;8.346;2023-02-11T11:24:38;9.10;99.90
1978;DHT22;989;53.016;8.346;2023-02-11T11:27:17;9.10;99.90
1978;DHT22;989;53.016;8.346;2023-02-11T11:29:53;9.10;99.90
1978;DHT22;989;53.016;8.346;2023-02-11T11:32:22;9.20;99.90
1978;DHT22;989;53.016;8.346;2023-02-11T11:34:55;9.20;99.90
1978;DHT22;989;53.016;8.346;2023-02-11T11:37:31;9.20;99.90
1978;DHT22;989;53.016;8.346;2023-02-11T11:40:10;9.20;99.90
1978;DHT22;989;53.016;8.346;2023-02-11T11:42:42;9.20;99.90
1978;DHT22;989;53.016;8.346;2023-02-11T11:45:21;9.20;99.90
1978;DHT22;989;53.016;8.346;2023-02-11T11:48:13;9.30;99.90
1978;DHT22;989;53.016;8.346;2023-02-11T11:50:51;9.30;99.90
1978;DHT22;989;53.016;8.346;2023-02-11T11:58:40;9.50;99.90
1978;DHT22;989;53.016;8.346;2023-02-11T12:01:29;9.50;98.80
1978;DHT22;989;53.016;8.346;2023-02-11T12:07:25;9.60;98.20
1978;DHT22;989;53.016;8.346;2023-02-11T12:10:24;9.60;92.80
1978;DHT22;989;53.016;8.346;2023-02-11T12:13:15;9.60;90.00
1978;DHT22;989;53.016;8.346;2023-02-11T12:22:08;9.70;68.10
1978;DHT22;989;53.016;8.346;2023-02-11T12:36:07;9.80;54.40
1978;DHT22;989;53.016;8.346;2023-02-11T12:38:55;9.90;56.70
1978;DHT22;989;53.016;8.346;2023-02-11T12:42:37;9.80;51.20
1978;DHT22;989;53.016;8.346;2023-02-11T12:59:48;10.10;35.50
1978;DHT22;989;53.016;8.346;2023-02-11T13:02:32;10.10;36.10
1978;DHT22;989;53.016;8.346;2023-02-11T13:05:44;10.10;35.30
1978;DHT22;989;53.016;8.346;2023-02-11T13:08:32;10.10;32.70
1978;DHT22;989;53.016;8.346;2023-02-11T13:11:11;10.10;30.00
1978;DHT22;989;53.016;8.346;2023-02-11T13:13:49;10.30;29.30
1978;DHT22;989;53.016;8.346;2023-02-11T13:16:37;10.40;24.20
1978;DHT22;989;53.016;8.346;2023-02-11T13:22:16;10.50;18.30
1978;DHT22;989;53.016;8.346;2023-02-11T13:25:14;10.40;17.50
1978;DHT22;989;53.016;8.346;2023-02-11T13:30:50;10.40;18.80
1978;DHT22;989;53.016;8.346;2023-02-11T13:33:37;10.30;21.50
1978;DHT22;989;53.016;8.346;2023-02-11T13:38:30;10.30;19.70
1978;DHT22;989;53.016;8.346;2023-02-11T13:43:32;10.30;22.00
1978;DHT22;989;53.016;8.346;2023-02-11T13:46:07;10.40;21.10
1978;DHT22;989;53.016;8.346;2023-02-11T13:48:37;10.50;19.80
1978;DHT22;989;53.016;8.346;2023-02-11T13:51:06;10.50;13.80
1978;DHT22;989;53.016;8.346;2023-02-11T13:56:34;10.40;17.80
1978;DHT22;989;53.016;8.346;2023-02-11T13:59:04;10.60;12.90
1978;DHT22;989;53.016;8.346;2023-02-11T14:02:01;10.50;15.60
1978;DHT22;989;53.016;8.346;2023-02-11T14:08:30;10.60;16.20
1978;DHT22;989;53.016;8.346;2023-02-11T14:16:18;10.60;12.50
1978;DHT22;989;53.016;8.346;2023-02-11T14:21:19;10.60;15.50
1978;DHT22;989;53.016;8.346;2023-02-11T14:23:51;10.70;13.90
1978;DHT22;989;53.016;8.346;2023-02-11T14:29:04;10.60;10.40
1978;DHT22;989;53.016;8.346;2023-02-11T14:31:57;10.60;11.20
1978;DHT22;989;53.016;8.346;2023-02-11T14:41:10;10.50;13.90
1978;DHT22;989;53.016;8.346;2023-02-11T14:43:52;10.50;16.90
1978;DHT22;989;53.016;8.346;2023-02-11T14:46:22;10.40;16.80
1978;DHT22;989;53.016;8.346;2023-02-11T14:48:52;10.40;19.00
1978;DHT22;989;53.016;8.346;2023-02-11T14:51:21;10.40;16.80
1978;DHT22;989;53.016;8.346;2023-02-11T14:54:14;10.50;19.50
1978;DHT22;989;53.016;8.346;2023-02-11T14:56:42;10.50;19.20
1978;DHT22;989;53.016;8.346;2023-02-11T14:59:21;10.50;15.80
1978;DHT22;989;53.016;8.346;2023-02-11T15:01:52;10.40;17.20
1978;DHT22;989;53.016;8.346;2023-02-11T15:07:03;10.40;18.40
1978;DHT22;989;53.016;8.346;2023-02-11T15:09:42;10.40;19.20
1978;DHT22;989;53.016;8.346;2023-02-11T15:12:18;10.50;20.60
1978;DHT22;989;53.016;8.346;2023-02-11T15:14:53;10.50;19.00
1978;DHT22;989;53.016;8.346;2023-02-11T15:17:23;10.50;16.30
1978;DHT22;989;53.016;8.346;2023-02-11T15:19:54;10.50;16.90
1978;DHT22;989;53.016;8.346;2023-02-11T15:22:27;10.50;17.40
1978;DHT22;989;53.016;8.346;2023-02-11T15:25:10;10.50;19.00
1978;DHT22;989;53.016;8.346;2023-02-11T15:27:43;10.50;18.10
1978;DHT22;989;53.016;8.346;2023-02-11T15:32:51;10.40;18.00
1978;DHT22;989;53.016;8.346;2023-02-11T15:35:29;10.40;20.50
1978;DHT22;989;53.016;8.346;2023-02-11T15:38:01;10.40;20.80
1978;DHT22;989;53.016;8.346;2023-02-11T15:40:33;10.40;20.20
1978;DHT22;989;53.016;8.346;2023-02-11T15:43:05;10.40;20.40
1978;DHT22;989;53.016;8.346;2023-02-11T15:46:16;10.30;21.20
1978;DHT22;989;53.016;8.346;2023-02-11T15:48:34;10.30;23.10
1978;DHT22;989;53.016;8.346;2023-02-11T15:51:33;10.30;22.00
1978;DHT22;989;53.016;8.346;2023-02-11T15:54:02;10.30;25.50
1978;DHT22;989;53.016;8.346;2023-02-11T15:56:41;10.30;26.10
1978;DHT22;989;53.016;8.346;2023-02-11T15:59:30;10.30;25.20
1978;DHT22;989;53.016;8.346;2023-02-11T16:02:20;10.30;25.70
1978;DHT22;989;53.016;8.346;2023-02-11T16:04:51;10.30;26.20
1978;DHT22;989;53.016;8.346;2023-02-11T16:10:27;10.30;28.60
1978;DHT22;989;53.016;8.346;2023-02-11T16:15:47;10.20;28.60
1978;DHT22;989;53.016;8.346;2023-02-11T16:20:54;10.20;29.70
1978;DHT22;989;53.016;8.346;2023-02-11T16:23:24;10.20;30.40
1978;DHT22;989;53.016;8.346;2023-02-11T16:25:57;10.20;29.50
1978;DHT22;989;53.016;8.346;2023-02-11T16:28:26;10.20;29.40
1978;DHT22;989;53.016;8.346;2023-02-11T16:30:53;10.20;30.60
1978;DHT22;989;53.016;8.346;2023-02-11T16:33:19;10.20;30.90
1978;DHT22;989;53.016;8.346;2023-02-11T16:35:46;10.20;29.90
1978;DHT22;989;53.016;8.346;2023-02-11T16:38:12;10.10;30.10
1978;DHT22;989;53.016;8.346;2023-02-11T16:40:38;10.10;35.00
1978;DHT22;989;53.016;8.346;2023-02-11T16:43:03;10.10;35.50
1978;DHT22;989;53.016;8.346;2023-02-11T16:45:29;10.10;34.60
1978;DHT22;989;53.016;8.346;2023-02-11T16:47:56;10.10;35.50
1978;DHT22;989;53.016;8.346;2023-02-11T16:50:23;10.10;35.90
1978;DHT22;989;53.016;8.346;2023-02-11T16:52:49;10.00;36.70
1978;DHT22;989;53.016;8.346;2023-02-11T16:55:17;10.10;38.40
1978;DHT22;989;53.016;8.346;2023-02-11T16:57:43;10.00;37.70
1978;DHT22;989;53.016;8.346;2023-02-11T17:00:09;10.00;38.10
1978;DHT22;989;53.016;8.346;2023-02-11T17:02:36;10.00;39.90
1978;DHT22;989;53.016;8.346;2023-02-11T17:05:05;10.00;40.00
1978;DHT22;989;53.016;8.346;2023-02-11T17:07:32;10.00;40.60
1978;DHT22;989;53.016;8.346;2023-02-11T17:09:58;10.00;41.90
1978;DHT22;989;53.016;8.346;2023-02-11T17:12:24;10.00;38.20
1978;DHT22;989;53.016;8.346;2023-02-11T17:14:50;9.90;42.00
1978;DHT22;989;53.016;8.346;2023-02-11T17:17:16;9.90;42.70
1978;DHT22;989;53.016;8.346;2023-02-11T17:19:42;9.90;43.00
1978;DHT22;989;53.016;8.346;2023-02-11T17:22:09;9.90;44.50
1978;DHT22;989;53.016;8.346;2023-02-11T17:24:36;9.90;43.30
1978;DHT22;989;53.016;8.346;2023-02-11T17:27:02;9.90;43.00
1978;DHT22;989;53.016;8.346;2023-02-11T17:29:28;9.90;41.50
1978;DHT22;989;53.016;8.346;2023-02-11T17:31:54;9.90;39.30
1978;DHT22;989;53.016;8.346;2023-02-11T17:34:20;9.90;43.50
1978;DHT22;989;53.016;8.346;2023-02-11T17:36:46;9.80;43.70
1978;DHT22;989;53.016;8.346;2023-02-11T17:39:13;9.80;44.70
1978;DHT22;989;53.016;8.346;2023-02-11T17:41:39;9.80;44.20
1978;DHT22;989;53.016;8.346;2023-02-11T17:44:07;9.80;45.40
1978;DHT22;989;53.016;8.346;2023-02-11T17:46:34;9.80;45.10
1978;DHT22;989;53.016;8.346;2023-02-11T17:49:00;9.70;44.90
1978;DHT22;989;53.016;8.346;2023-02-11T17:51:35;9.70;49.00
1978;DHT22;989;53.016;8.346;2023-02-11T17:54:05;9.70;49.10
1978;DHT22;989;53.016;8.346;2023-02-11T17:56:34;9.70;50.20
1978;DHT22;989;53.016;8.346;2023-02-11T17:59:01;9.60;49.80
1978;DHT22;989;53.016;8.346;2023-02-11T18:01:29;9.60;53.60
1978;DHT22;989;53.016;8.346;2023-02-11T18:03:56;9.60;55.60
1978;DHT22;989;53.016;8.346;2023-02-11T18:06:22;9.60;54.80
1978;DHT22;989;53.016;8.346;2023-02-11T18:08:48;9.60;55.50
1978;DHT22;989;53.016;8.346;2023-02-11T18:11:14;9.60;60.50
1978;DHT22;989;53.016;8.346;2023-02-11T18:13:41;9.60;54.10
1978;DHT22;989;53.016;8.346;2023-02-11T18:16:07;9.60;56.70
1978;DHT22;989;53.016;8.346;2023-02-11T18:18:34;9.60;54.20
1978;DHT22;989;53.016;8.346;2023-02-11T18:21:01;9.60;53.40
1978;DHT22;989;53.016;8.346;2023-02-11T18:23:33;9.70;53.90
1978;DHT22;989;53.016;8.346;2023-02-11T18:25:59;9.70;52.50
1978;DHT22;989;53.016;8.346;2023-02-11T18:28:24;9.70;52.60
1978;DHT22;989;53.016;8.346;2023-02-11T18:31:00;9.70;49.70
1978;DHT22;989;53.016;8.346;2023-02-11T18:33:27;9.70;48.30
1978;DHT22;989;53.016;8.346;2023-02-11T18:35:53;9.70;47.10
1978;DHT22;989;53.016;8.346;2023-02-11T18:38:19;9.70;48.30
1978;DHT22;989;53.016;8.346;2023-02-11T18:40:46;9.70;46.60
1978;DHT22;989;53.016;8.346;2023-02-11T18:43:15;9.70;47.10
1978;DHT22;989;53.016;8.346;2023-02-11T18:45:46;9.70;47.60
1978;DHT22;989;53.016;8.346;2023-02-11T18:48:13;9.60;49.10
1978;DHT22;989;53.016;8.346;2023-02-11T18:50:40;9.60;48.40
1978;DHT22;989;53.016;8.346;2023-02-11T18:53:07;9.70;46.10
1978;DHT22;989;53.016;8.346;2023-02-11T18:55:33;9.60;46.60
1978;DHT22;989;53.016;8.346;2023-02-11T18:57:59;9.60;45.90
1978;DHT22;989;53.016;8.346;2023-02-11T19:00:24;9.70;47.10
1978;DHT22;989;53.016;8.346;2023-02-11T19:02:50;9.60;48.10
1978;DHT22;989;53.016;8.346;2023-02-11T19:05:17;9.70;47.40
1978;DHT22;989;53.016;8.346;2023-02-11T19:07:43;9.70;49.60
1978;DHT22;989;53.016;8.346;2023-02-11T19:10:09;9.70;49.70
1978;DHT22;989;53.016;8.346;2023-02-11T19:12:35;9.60;49.10
1978;DHT22;989;53.016;8.346;2023-02-11T19:15:05;9.70;49.40
1978;DHT22;989;53.016;8.346;2023-02-11T19:17:31;9.60;48.30
1978;DHT22;989;53.016;8.346;2023-02-11T19:19:57;9.60;49.70
1978;DHT22;989;53.016;8.346;2023-02-11T19:22:23;9.60;50.20
1978;DHT22;989;53.016;8.346;2023-02-11T19:24:49;9.60;51.20
1978;DHT22;989;53.016;8.346;2023-02-11T19:27:14;9.60;51.60
1978;DHT22;989;53.016;8.346;2023-02-11T19:29:40;9.60;51.20
1978;DHT22;989;53.016;8.346;2023-02-11T19:32:05;9.60;51.40
1978;DHT22;989;53.016;8.346;2023-02-11T19:34:32;9.60;52.80
1978;DHT22;989;53.016;8.346;2023-02-11T19:36:58;9.60;52.10